sensor_id;sensor_type;location;lat;lon;timestamp;P1;durP1;ratioP1;P2;durP2;ratioP2
57241;SDS011;43095;53.302;5.786;2022-11-20T00:01:12;16.58;;;11.07;;
57241;SDS011;43095;53.302;5.786;2022-11-20T00:03:47;16.70;;;11.05;;
57241;SDS011;43095;53.302;5.786;2022-11-20T00:06:15;15.30;;;11.43;;
57241;SDS011;43095;53.302;5.786;2022-11-20T00:08:44;14.98;;;10.65;;
57241;SDS011;43095;53.302;5.786;2022-11-20T00:13:47;18.70;;;11.30;;
57241;SDS011;43095;53.302;5.786;2022-11-20T00:16:17;18.35;;;11.38;;
57241;SDS011;43095;53.302;5.786;2022-11-20T00:18:46;16.73;;;12.10;;
57241;SDS011;43095;53.302;5.786;2022-11-20T00:21:20;15.00;;;11.30;;
57241;SDS011;43095;53.302;5.786;2022-11-20T00:23:50;17.42;;;11.02;;
57241;SDS011;43095;53.302;5.786;2022-11-20T00:26:21;15.63;;;11.25;;
57241;SDS011;43095;53.302;5.786;2022-11-20T00:28:56;15.38;;;10.32;;
57241;SDS011;43095;53.302;5.786;2022-11-20T00:31:25;13.15;;;9.82;;
57241;SDS011;43095;53.302;5.786;2022-11-20T00:33:52;12.52;;;9.73;;
57241;SDS011;43095;53.302;5.786;2022-11-20T00:36:24;15.38;;;10.20;;
57241;SDS011;43095;53.302;5.786;2022-11-20T00:38:53;22.13;;;11.73;;
57241;SDS011;43095;53.302;5.786;2022-11-20T00:41:22;17.10;;;11.20;;
57241;SDS011;43095;53.302;5.786;2022-11-20T00:43:51;15.00;;;10.73;;
57241;SDS011;43095;53.302;5.786;2022-11-20T00:46:20;16.33;;;11.32;;
57241;SDS011;43095;53.302;5.786;2022-11-20T00:48:49;15.13;;;10.85;;
57241;SDS011;43095;53.302;5.786;2022-11-20T00:51:17;15.65;;;10.05;;
57241;SDS011;43095;53.302;5.786;2022-11-20T00:53:46;18.35;;;10.52;;
57241;SDS011;43095;53.302;5.786;2022-11-20T00:56:15;19.05;;;10.70;;
57241;SDS011;43095;53.302;5.786;2022-11-20T00:58:44;17.42;;;10.90;;
57241;SDS011;43095;53.302;5.786;2022-11-20T01:01:14;13.13;;;9.48;;
57241;SDS011;43095;53.302;5.786;2022-11-20T01:03:44;16.00;;;11.10;;
57241;SDS011;43095;53.302;5.786;2022-11-20T01:06:16;15.13;;;10.20;;
57241;SDS011;43095;53.302;5.786;2022-11-20T01:08:45;16.67;;;11.07;;
57241;SDS011;43095;53.302;5.786;2022-11-20T01:11:14;17.25;;;12.02;;
57241;SDS011;43095;53.302;5.786;2022-11-20T01:13:47;17.15;;;10.70;;
57241;SDS011;43095;53.302;5.786;2022-11-20T01:16:17;17.33;;;11.50;;
57241;SDS011;43095;53.302;5.786;2022-11-20T01:18:46;14.98;;;10.52;;
57241;SDS011;43095;53.302;5.786;2022-11-20T01:21:16;14.98;;;11.00;;
57241;SDS011;43095;53.302;5.786;2022-11-20T01:23:46;15.57;;;10.57;;
57241;SDS011;43095;53.302;5.786;2022-11-20T01:26:15;15.15;;;10.80;;
57241;SDS011;43095;53.302;5.786;2022-11-20T01:28:47;17.02;;;11.02;;
57241;SDS011;43095;53.302;5.786;2022-11-20T01:31:16;15.35;;;9.77;;
57241;SDS011;43095;53.302;5.786;2022-11-20T01:36:17;15.05;;;10.93;;
57241;SDS011;43095;53.302;5.786;2022-11-20T01:38:46;17.85;;;11.43;;
57241;SDS011;43095;53.302;5.786;2022-11-20T01:41:14;16.95;;;10.70;;
57241;SDS011;43095;53.302;5.786;2022-11-20T01:44:00;14.77;;;9.07;;
57241;SDS011;43095;53.302;5.786;2022-11-20T01:46:29;14.05;;;9.85;;
57241;SDS011;43095;53.302;5.786;2022-11-20T01:51:46;13.68;;;9.63;;
57241;SDS011;43095;53.302;5.786;2022-11-20T01:54:21;14.38;;;9.95;;
57241;SDS011;43095;53.302;5.786;2022-11-20T01:56:53;14.50;;;10.20;;
57241;SDS011;43095;53.302;5.786;2022-11-20T01:59:23;15.85;;;10.00;;
57241;SDS011;43095;53.302;5.786;2022-11-20T02:01:52;16.48;;;10.57;;
57241;SDS011;43095;53.302;5.786;2022-11-20T02:04:20;15.68;;;10.85;;
57241;SDS011;43095;53.302;5.786;2022-11-20T02:06:49;15.75;;;11.15;;
57241;SDS011;43095;53.302;5.786;2022-11-20T02:09:27;16.30;;;11.20;;
57241;SDS011;43095;53.302;5.786;2022-11-20T02:12:00;16.13;;;10.68;;
57241;SDS011;43095;53.302;5.786;2022-11-20T02:14:28;18.73;;;12.02;;
57241;SDS011;43095;53.302;5.786;2022-11-20T02:16:55;16.35;;;11.30;;
57241;SDS011;43095;53.302;5.786;2022-11-20T02:19:27;16.38;;;10.35;;
57241;SDS011;43095;53.302;5.786;2022-11-20T02:24:29;13.95;;;10.38;;
57241;SDS011;43095;53.302;5.786;2022-11-20T02:26:57;15.25;;;10.93;;
57241;SDS011;43095;53.302;5.786;2022-11-20T02:32:18;15.82;;;10.20;;
57241;SDS011;43095;53.302;5.786;2022-11-20T02:34:48;16.90;;;10.65;;
57241;SDS011;43095;53.302;5.786;2022-11-20T02:37:15;21.15;;;10.93;;
57241;SDS011;43095;53.302;5.786;2022-11-20T02:39:44;16.80;;;10.65;;
57241;SDS011;43095;53.302;5.786;2022-11-20T02:42:15;16.08;;;10.40;;
57241;SDS011;43095;53.302;5.786;2022-11-20T02:44:43;15.52;;;10.57;;
57241;SDS011;43095;53.302;5.786;2022-11-20T02:47:10;14.90;;;10.23;;
57241;SDS011;43095;53.302;5.786;2022-11-20T02:49:37;16.73;;;11.98;;
57241;SDS011;43095;53.302;5.786;2022-11-20T02:52:05;16.25;;;10.90;;
57241;SDS011;43095;53.302;5.786;2022-11-20T02:54:32;17.13;;;11.57;;
57241;SDS011;43095;53.302;5.786;2022-11-20T02:56:59;15.18;;;10.55;;
57241;SDS011;43095;53.302;5.786;2022-11-20T02:59:26;16.90;;;10.25;;
57241;SDS011;43095;53.302;5.786;2022-11-20T03:01:54;13.40;;;9.50;;
57241;SDS011;43095;53.302;5.786;2022-11-20T03:04:21;15.70;;;10.43;;
57241;SDS011;43095;53.302;5.786;2022-11-20T03:06:48;14.55;;;10.35;;
57241;SDS011;43095;53.302;5.786;2022-11-20T03:09:15;14.85;;;10.40;;
57241;SDS011;43095;53.302;5.786;2022-11-20T03:11:42;14.32;;;10.30;;
57241;SDS011;43095;53.302;5.786;2022-11-20T03:14:09;16.25;;;10.32;;
57241;SDS011;43095;53.302;5.786;2022-11-20T03:16:36;16.73;;;11.13;;
57241;SDS011;43095;53.302;5.786;2022-11-20T03:19:03;15.15;;;10.73;;
57241;SDS011;43095;53.302;5.786;2022-11-20T03:21:32;13.57;;;9.40;;
57241;SDS011;43095;53.302;5.786;2022-11-20T03:24:00;14.57;;;9.73;;
57241;SDS011;43095;53.302;5.786;2022-11-20T03:26:28;14.20;;;10.05;;
57241;SDS011;43095;53.302;5.786;2022-11-20T03:28:59;13.85;;;9.98;;
57241;SDS011;43095;53.302;5.786;2022-11-20T03:31:29;16.20;;;10.75;;
57241;SDS011;43095;53.302;5.786;2022-11-20T03:33:58;17.67;;;10.65;;
57241;SDS011;43095;53.302;5.786;2022-11-20T03:36:27;12.25;;;9.88;;
57241;SDS011;43095;53.302;5.786;2022-11-20T03:38:55;16.98;;;10.57;;
57241;SDS011;43095;53.302;5.786;2022-11-20T03:41:27;17.75;;;11.07;;
57241;SDS011;43095;53.302;5.786;2022-11-20T03:44:00;15.98;;;10.25;;
57241;SDS011;43095;53.302;5.786;2022-11-20T03:46:29;16.73;;;9.73;;
57241;SDS011;43095;53.302;5.786;2022-11-20T03:48:56;14.77;;;9.98;;
57241;SDS011;43095;53.302;5.786;2022-11-20T03:51:24;17.05;;;10.55;;
57241;SDS011;43095;53.302;5.786;2022-11-20T03:53:54;15.40;;;10.20;;
57241;SDS011;43095;53.302;5.786;2022-11-20T03:56:23;14.27;;;9.65;;
57241;SDS011;43095;53.302;5.786;2022-11-20T03:58:55;17.90;;;11.40;;
57241;SDS011;43095;53.302;5.786;2022-11-20T04:01:27;17.17;;;10.10;;
57241;SDS011;43095;53.302;5.786;2022-11-20T04:04:00;16.77;;;10.85;;
57241;SDS011;43095;53.302;5.786;2022-11-20T04:06:29;15.23;;;10.45;;
57241;SDS011;43095;53.302;5.786;2022-11-20T04:08:59;16.92;;;10.73;;
57241;SDS011;43095;53.302;5.786;2022-11-20T04:11:27;15.95;;;10.85;;
57241;SDS011;43095;53.302;5.786;2022-11-20T04:13:57;15.35;;;10.50;;
57241;SDS011;43095;53.302;5.786;2022-11-20T04:16:28;15.80;;;10.55;;
57241;SDS011;43095;53.302;5.786;2022-11-20T04:18:57;17.52;;;10.27;;
57241;SDS011;43095;53.302;5.786;2022-11-20T04:21:26;14.80;;;10.02;;
57241;SDS011;43095;53.302;5.786;2022-11-20T04:23:54;16.98;;;11.50;;
57241;SDS011;43095;53.302;5.786;2022-11-20T04:26:23;17.27;;;11.27;;
57241;SDS011;43095;53.302;5.786;2022-11-20T04:28:51;16.20;;;11.10;;
57241;SDS011;43095;53.302;5.786;2022-11-20T04:31:19;15.57;;;11.02;;
57241;SDS011;43095;53.302;5.786;2022-11-20T04:33:48;15.73;;;10.57;;
57241;SDS011;43095;53.302;5.786;2022-11-20T04:36:16;17.90;;;11.00;;
57241;SDS011;43095;53.302;5.786;2022-11-20T04:38:44;16.42;;;10.63;;
57241;SDS011;43095;53.302;5.786;2022-11-20T04:41:16;15.88;;;11.00;;
57241;SDS011;43095;53.302;5.786;2022-11-20T04:43:52;16.05;;;11.00;;
57241;SDS011;43095;53.302;5.786;2022-11-20T04:46:26;15.98;;;11.18;;
57241;SDS011;43095;53.302;5.786;2022-11-20T04:48:54;18.08;;;11.40;;
57241;SDS011;43095;53.302;5.786;2022-11-20T04:51:22;14.20;;;9.77;;
57241;SDS011;43095;53.302;5.786;2022-11-20T04:53:49;17.95;;;10.60;;
57241;SDS011;43095;53.302;5.786;2022-11-20T04:56:16;14.52;;;10.18;;
57241;SDS011;43095;53.302;5.786;2022-11-20T04:58:44;19.50;;;11.50;;
57241;SDS011;43095;53.302;5.786;2022-11-20T05:03:40;15.85;;;11.13;;
57241;SDS011;43095;53.302;5.786;2022-11-20T05:06:09;15.02;;;10.07;;
57241;SDS011;43095;53.302;5.786;2022-11-20T05:08:40;16.88;;;10.95;;
57241;SDS011;43095;53.302;5.786;2022-11-20T05:11:09;16.92;;;11.00;;
57241;SDS011;43095;53.302;5.786;2022-11-20T05:13:38;17.42;;;10.68;;
57241;SDS011;43095;53.302;5.786;2022-11-20T05:16:06;15.10;;;9.95;;
57241;SDS011;43095;53.302;5.786;2022-11-20T05:18:35;16.48;;;10.70;;
57241;SDS011;43095;53.302;5.786;2022-11-20T05:21:03;14.85;;;10.38;;
57241;SDS011;43095;53.302;5.786;2022-11-20T05:23:32;17.40;;;11.35;;
57241;SDS011;43095;53.302;5.786;2022-11-20T05:25:59;16.73;;;11.02;;
57241;SDS011;43095;53.302;5.786;2022-11-20T05:28:27;19.83;;;11.75;;
57241;SDS011;43095;53.302;5.786;2022-11-20T05:30:56;15.80;;;10.48;;
57241;SDS011;43095;53.302;5.786;2022-11-20T05:33:30;16.85;;;10.88;;
57241;SDS011;43095;53.302;5.786;2022-11-20T05:36:00;15.45;;;11.20;;
57241;SDS011;43095;53.302;5.786;2022-11-20T05:38:28;16.90;;;11.07;;
57241;SDS011;43095;53.302;5.786;2022-11-20T05:41:02;16.48;;;11.55;;
57241;SDS011;43095;53.302;5.786;2022-11-20T05:43:33;16.52;;;10.90;;
57241;SDS011;43095;53.302;5.786;2022-11-20T05:46:02;16.92;;;10.57;;
57241;SDS011;43095;53.302;5.786;2022-11-20T05:48:30;16.08;;;11.27;;
57241;SDS011;43095;53.302;5.786;2022-11-20T05:50:58;17.10;;;10.20;;
57241;SDS011;43095;53.302;5.786;2022-11-20T05:53:27;18.35;;;10.88;;
57241;SDS011;43095;53.302;5.786;2022-11-20T05:56:05;15.38;;;10.15;;
57241;SDS011;43095;53.302;5.786;2022-11-20T05:58:34;15.15;;;10.70;;
57241;SDS011;43095;53.302;5.786;2022-11-20T06:01:06;16.05;;;10.23;;
57241;SDS011;43095;53.302;5.786;2022-11-20T06:03:34;13.82;;;9.68;;
57241;SDS011;43095;53.302;5.786;2022-11-20T06:06:02;14.63;;;9.93;;
57241;SDS011;43095;53.302;5.786;2022-11-20T06:08:29;13.50;;;9.90;;
57241;SDS011;43095;53.302;5.786;2022-11-20T06:10:57;14.68;;;10.27;;
57241;SDS011;43095;53.302;5.786;2022-11-20T06:13:24;15.30;;;9.88;;
57241;SDS011;43095;53.302;5.786;2022-11-20T06:15:52;15.77;;;10.18;;
57241;SDS011;43095;53.302;5.786;2022-11-20T06:18:20;14.27;;;9.52;;
57241;SDS011;43095;53.302;5.786;2022-11-20T06:20:47;13.18;;;9.75;;
57241;SDS011;43095;53.302;5.786;2022-11-20T06:23:14;14.10;;;10.18;;
57241;SDS011;43095;53.302;5.786;2022-11-20T06:25:41;18.40;;;9.48;;
57241;SDS011;43095;53.302;5.786;2022-11-20T06:28:09;14.70;;;9.73;;
57241;SDS011;43095;53.302;5.786;2022-11-20T06:30:36;19.10;;;10.82;;
57241;SDS011;43095;53.302;5.786;2022-11-20T06:33:03;15.52;;;10.35;;
57241;SDS011;43095;53.302;5.786;2022-11-20T06:35:30;15.68;;;10.60;;
57241;SDS011;43095;53.302;5.786;2022-11-20T06:37:57;16.23;;;10.82;;
57241;SDS011;43095;53.302;5.786;2022-11-20T06:40:25;14.02;;;9.48;;
57241;SDS011;43095;53.302;5.786;2022-11-20T06:42:53;13.82;;;10.27;;
57241;SDS011;43095;53.302;5.786;2022-11-20T06:45:21;15.65;;;10.15;;
57241;SDS011;43095;53.302;5.786;2022-11-20T06:47:48;13.38;;;9.48;;
57241;SDS011;43095;53.302;5.786;2022-11-20T06:50:15;15.75;;;9.73;;
57241;SDS011;43095;53.302;5.786;2022-11-20T06:52:42;13.43;;;9.10;;
57241;SDS011;43095;53.302;5.786;2022-11-20T06:55:09;13.25;;;9.50;;
57241;SDS011;43095;53.302;5.786;2022-11-20T06:57:36;14.65;;;10.15;;
57241;SDS011;43095;53.302;5.786;2022-11-20T07:00:03;13.65;;;10.18;;
57241;SDS011;43095;53.302;5.786;2022-11-20T07:02:31;15.02;;;10.15;;
57241;SDS011;43095;53.302;5.786;2022-11-20T07:04:58;14.73;;;10.40;;
57241;SDS011;43095;53.302;5.786;2022-11-20T07:07:25;14.70;;;10.35;;
57241;SDS011;43095;53.302;5.786;2022-11-20T07:09:52;14.65;;;9.80;;
57241;SDS011;43095;53.302;5.786;2022-11-20T07:12:21;13.32;;;9.80;;
57241;SDS011;43095;53.302;5.786;2022-11-20T07:14:48;15.52;;;10.07;;
57241;SDS011;43095;53.302;5.786;2022-11-20T07:17:15;15.93;;;10.60;;
57241;SDS011;43095;53.302;5.786;2022-11-20T07:19:42;15.93;;;10.27;;
57241;SDS011;43095;53.302;5.786;2022-11-20T07:22:09;15.07;;;10.57;;
57241;SDS011;43095;53.302;5.786;2022-11-20T07:24:36;16.98;;;11.50;;
57241;SDS011;43095;53.302;5.786;2022-11-20T07:27:10;15.43;;;10.50;;
57241;SDS011;43095;53.302;5.786;2022-11-20T07:29:37;15.80;;;10.80;;
57241;SDS011;43095;53.302;5.786;2022-11-20T07:32:04;15.60;;;10.75;;
57241;SDS011;43095;53.302;5.786;2022-11-20T07:34:31;16.35;;;10.90;;
57241;SDS011;43095;53.302;5.786;2022-11-20T07:36:58;13.00;;;9.60;;
57241;SDS011;43095;53.302;5.786;2022-11-20T07:39:25;15.55;;;10.82;;
57241;SDS011;43095;53.302;5.786;2022-11-20T07:41:52;19.60;;;12.52;;
57241;SDS011;43095;53.302;5.786;2022-11-20T07:44:19;18.23;;;11.27;;
57241;SDS011;43095;53.302;5.786;2022-11-20T07:46:46;17.95;;;11.63;;
57241;SDS011;43095;53.302;5.786;2022-11-20T07:49:13;16.58;;;10.57;;
57241;SDS011;43095;53.302;5.786;2022-11-20T07:51:40;15.65;;;10.80;;
57241;SDS011;43095;53.302;5.786;2022-11-20T07:54:07;14.27;;;10.45;;
57241;SDS011;43095;53.302;5.786;2022-11-20T07:56:34;13.32;;;9.57;;
57241;SDS011;43095;53.302;5.786;2022-11-20T07:59:02;16.63;;;10.52;;
57241;SDS011;43095;53.302;5.786;2022-11-20T08:01:30;16.48;;;10.05;;
57241;SDS011;43095;53.302;5.786;2022-11-20T08:03:57;14.73;;;9.43;;
57241;SDS011;43095;53.302;5.786;2022-11-20T08:06:24;14.82;;;9.98;;
57241;SDS011;43095;53.302;5.786;2022-11-20T08:08:51;12.68;;;9.05;;
57241;SDS011;43095;53.302;5.786;2022-11-20T08:11:18;14.68;;;10.32;;
57241;SDS011;43095;53.302;5.786;2022-11-20T08:14:03;14.73;;;10.20;;
57241;SDS011;43095;53.302;5.786;2022-11-20T08:16:40;15.77;;;9.73;;
57241;SDS011;43095;53.302;5.786;2022-11-20T08:19:08;15.77;;;10.85;;
57241;SDS011;43095;53.302;5.786;2022-11-20T08:21:36;14.73;;;10.68;;
57241;SDS011;43095;53.302;5.786;2022-11-20T08:24:04;14.27;;;10.05;;
57241;SDS011;43095;53.302;5.786;2022-11-20T08:26:32;14.55;;;10.02;;
57241;SDS011;43095;53.302;5.786;2022-11-20T08:28:59;16.70;;;10.18;;
57241;SDS011;43095;53.302;5.786;2022-11-20T08:31:27;14.15;;;10.13;;
57241;SDS011;43095;53.302;5.786;2022-11-20T08:33:54;15.00;;;10.45;;
57241;SDS011;43095;53.302;5.786;2022-11-20T08:36:22;14.32;;;10.75;;
57241;SDS011;43095;53.302;5.786;2022-11-20T08:38:51;12.98;;;9.70;;
57241;SDS011;43095;53.302;5.786;2022-11-20T08:41:19;17.33;;;10.38;;
57241;SDS011;43095;53.302;5.786;2022-11-20T08:43:50;13.48;;;9.73;;
57241;SDS011;43095;53.302;5.786;2022-11-20T08:46:18;14.60;;;10.15;;
57241;SDS011;43095;53.302;5.786;2022-11-20T08:48:45;14.18;;;9.90;;
57241;SDS011;43095;53.302;5.786;2022-11-20T08:51:13;14.40;;;10.25;;
57241;SDS011;43095;53.302;5.786;2022-11-20T08:53:40;14.18;;;10.23;;
57241;SDS011;43095;53.302;5.786;2022-11-20T08:56:07;15.40;;;10.25;;
57241;SDS011;43095;53.302;5.786;2022-11-20T08:58:37;15.02;;;10.88;;
57241;SDS011;43095;53.302;5.786;2022-11-20T09:01:25;14.45;;;10.38;;
57241;SDS011;43095;53.302;5.786;2022-11-20T09:03:54;14.02;;;9.65;;
57241;SDS011;43095;53.302;5.786;2022-11-20T09:08:53;14.50;;;9.10;;
57241;SDS011;43095;53.302;5.786;2022-11-20T09:11:21;14.90;;;10.52;;
57241;SDS011;43095;53.302;5.786;2022-11-20T09:13:48;12.52;;;9.38;;
57241;SDS011;43095;53.302;5.786;2022-11-20T09:16:16;12.75;;;9.50;;
57241;SDS011;43095;53.302;5.786;2022-11-20T09:18:43;14.48;;;9.50;;
57241;SDS011;43095;53.302;5.786;2022-11-20T09:21:10;13.52;;;9.75;;
57241;SDS011;43095;53.302;5.786;2022-11-20T09:23:39;14.60;;;10.60;;
57241;SDS011;43095;53.302;5.786;2022-11-20T09:26:08;16.75;;;11.70;;
57241;SDS011;43095;53.302;5.786;2022-11-20T09:28:37;14.95;;;11.27;;
57241;SDS011;43095;53.302;5.786;2022-11-20T09:31:05;17.45;;;11.88;;
57241;SDS011;43095;53.302;5.786;2022-11-20T09:33:40;17.17;;;11.95;;
57241;SDS011;43095;53.302;5.786;2022-11-20T09:36:07;16.40;;;12.45;;
57241;SDS011;43095;53.302;5.786;2022-11-20T09:38:34;18.73;;;12.73;;
57241;SDS011;43095;53.302;5.786;2022-11-20T09:41:03;17.20;;;11.88;;
57241;SDS011;43095;53.302;5.786;2022-11-20T09:46:54;18.10;;;12.45;;
57241;SDS011;43095;53.302;5.786;2022-11-20T09:49:40;17.30;;;12.20;;
57241;SDS011;43095;53.302;5.786;2022-11-20T09:55:12;19.23;;;13.98;;
57241;SDS011;43095;53.302;5.786;2022-11-20T09:57:42;15.85;;;11.55;;
57241;SDS011;43095;53.302;5.786;2022-11-20T10:00:13;17.73;;;11.48;;
57241;SDS011;43095;53.302;5.786;2022-11-20T10:02:44;16.17;;;12.05;;
57241;SDS011;43095;53.302;5.786;2022-11-20T10:08:17;15.15;;;11.35;;
57241;SDS011;43095;53.302;5.786;2022-11-20T10:24:34;17.13;;;12.55;;
57241;SDS011;43095;53.302;5.786;2022-11-20T10:29:59;20.63;;;12.60;;
57241;SDS011;43095;53.302;5.786;2022-11-20T10:32:39;14.35;;;11.82;;
57241;SDS011;43095;53.302;5.786;2022-11-20T10:37:41;15.73;;;11.02;;
57241;SDS011;43095;53.302;5.786;2022-11-20T10:42:55;15.70;;;11.38;;
57241;SDS011;43095;53.302;5.786;2022-11-20T10:45:31;17.25;;;12.98;;
57241;SDS011;43095;53.302;5.786;2022-11-20T10:50:38;15.07;;;11.15;;
57241;SDS011;43095;53.302;5.786;2022-11-20T10:57:00;15.57;;;12.30;;
57241;SDS011;43095;53.302;5.786;2022-11-20T11:01:39;16.02;;;12.23;;
57241;SDS011;43095;53.302;5.786;2022-11-20T11:04:23;15.00;;;10.65;;
57241;SDS011;43095;53.302;5.786;2022-11-20T11:07:06;14.80;;;10.93;;
57241;SDS011;43095;53.302;5.786;2022-11-20T11:09:42;16.05;;;11.70;;
57241;SDS011;43095;53.302;5.786;2022-11-20T11:12:13;18.55;;;13.00;;
57241;SDS011;43095;53.302;5.786;2022-11-20T11:14:44;16.92;;;12.00;;
57241;SDS011;43095;53.302;5.786;2022-11-20T11:17:20;15.05;;;10.68;;
57241;SDS011;43095;53.302;5.786;2022-11-20T11:19:58;18.83;;;11.57;;
57241;SDS011;43095;53.302;5.786;2022-11-20T11:22:28;16.60;;;11.52;;
57241;SDS011;43095;53.302;5.786;2022-11-20T11:24:57;14.15;;;11.25;;
57241;SDS011;43095;53.302;5.786;2022-11-20T11:27:24;14.32;;;10.65;;
57241;SDS011;43095;53.302;5.786;2022-11-20T11:30:00;14.50;;;10.80;;
57241;SDS011;43095;53.302;5.786;2022-11-20T11:32:39;13.20;;;9.93;;
57241;SDS011;43095;53.302;5.786;2022-11-20T11:35:18;17.67;;;10.90;;
57241;SDS011;43095;53.302;5.786;2022-11-20T11:37:50;12.45;;;9.93;;
57241;SDS011;43095;53.302;5.786;2022-11-20T11:40:20;12.95;;;9.55;;
57241;SDS011;43095;53.302;5.786;2022-11-20T11:42:52;12.73;;;9.98;;
57241;SDS011;43095;53.302;5.786;2022-11-20T11:45:23;12.55;;;8.55;;
57241;SDS011;43095;53.302;5.786;2022-11-20T11:47:50;10.68;;;7.90;;
57241;SDS011;43095;53.302;5.786;2022-11-20T11:50:23;12.27;;;8.02;;
57241;SDS011;43095;53.302;5.786;2022-11-20T11:53:01;11.02;;;8.05;;
57241;SDS011;43095;53.302;5.786;2022-11-20T11:55:51;10.82;;;8.10;;
57241;SDS011;43095;53.302;5.786;2022-11-20T11:58:47;10.18;;;7.45;;
57241;SDS011;43095;53.302;5.786;2022-11-20T12:01:33;10.80;;;8.32;;
57241;SDS011;43095;53.302;5.786;2022-11-20T12:04:07;9.60;;;7.65;;
57241;SDS011;43095;53.302;5.786;2022-11-20T12:06:51;8.82;;;7.20;;
57241;SDS011;43095;53.302;5.786;2022-11-20T12:09:26;9.23;;;6.90;;
57241;SDS011;43095;53.302;5.786;2022-11-20T12:12:04;9.43;;;7.03;;
57241;SDS011;43095;53.302;5.786;2022-11-20T12:14:37;8.52;;;7.25;;
57241;SDS011;43095;53.302;5.786;2022-11-20T12:17:08;10.20;;;6.35;;
57241;SDS011;43095;53.302;5.786;2022-11-20T12:19:38;7.45;;;5.78;;
57241;SDS011;43095;53.302;5.786;2022-11-20T12:30:16;7.45;;;5.70;;
57241;SDS011;43095;53.302;5.786;2022-11-20T12:38:43;7.35;;;5.97;;
57241;SDS011;43095;53.302;5.786;2022-11-20T12:47:24;8.45;;;5.30;;
57241;SDS011;43095;53.302;5.786;2022-11-20T12:50:28;7.28;;;5.35;;
57241;SDS011;43095;53.302;5.786;2022-11-20T12:53:44;6.03;;;4.45;;
57241;SDS011;43095;53.302;5.786;2022-11-20T12:59:51;7.70;;;5.30;;
57241;SDS011;43095;53.302;5.786;2022-11-20T13:07:43;9.13;;;5.80;;
57241;SDS011;43095;53.302;5.786;2022-11-20T13:13:14;8.13;;;5.95;;
57241;SDS011;43095;53.302;5.786;2022-11-20T13:18:20;7.78;;;5.68;;
57241;SDS011;43095;53.302;5.786;2022-11-20T13:20:48;9.38;;;6.60;;
57241;SDS011;43095;53.302;5.786;2022-11-20T13:23:25;7.70;;;6.10;;
57241;SDS011;43095;53.302;5.786;2022-11-20T13:26:04;6.15;;;4.95;;
57241;SDS011;43095;53.302;5.786;2022-11-20T13:28:40;8.60;;;5.57;;
57241;SDS011;43095;53.302;5.786;2022-11-20T13:31:28;7.57;;;6.10;;
57241;SDS011;43095;53.302;5.786;2022-11-20T13:36:30;8.90;;;5.70;;
57241;SDS011;43095;53.302;5.786;2022-11-20T13:38:58;9.80;;;6.20;;
57241;SDS011;43095;53.302;5.786;2022-11-20T13:41:30;7.65;;;5.97;;
57241;SDS011;43095;53.302;5.786;2022-11-20T13:44:47;9.13;;;6.40;;
57241;SDS011;43095;53.302;5.786;2022-11-20T13:46:53;10.68;;;6.38;;
57241;SDS011;43095;53.302;5.786;2022-11-20T13:49:26;9.30;;;6.78;;
57241;SDS011;43095;53.302;5.786;2022-11-20T13:57:42;9.60;;;6.38;;
57241;SDS011;43095;53.302;5.786;2022-11-20T14:02:41;9.05;;;6.65;;
57241;SDS011;43095;53.302;5.786;2022-11-20T14:05:16;9.25;;;6.63;;
57241;SDS011;43095;53.302;5.786;2022-11-20T14:07:48;7.63;;;6.13;;
57241;SDS011;43095;53.302;5.786;2022-11-20T14:10:24;9.50;;;6.97;;
57241;SDS011;43095;53.302;5.786;2022-11-20T14:12:58;7.47;;;5.95;;
57241;SDS011;43095;53.302;5.786;2022-11-20T14:15:36;8.35;;;6.20;;
57241;SDS011;43095;53.302;5.786;2022-11-20T14:18:18;9.30;;;6.68;;
57241;SDS011;43095;53.302;5.786;2022-11-20T14:20:48;8.23;;;5.93;;
57241;SDS011;43095;53.302;5.786;2022-11-20T14:23:25;7.68;;;5.70;;
57241;SDS011;43095;53.302;5.786;2022-11-20T14:25:56;10.27;;;6.03;;
57241;SDS011;43095;53.302;5.786;2022-11-20T14:28:30;7.97;;;5.95;;
57241;SDS011;43095;53.302;5.786;2022-11-20T14:30:58;9.25;;;6.18;;
57241;SDS011;43095;53.302;5.786;2022-11-20T14:33:25;8.77;;;6.47;;
57241;SDS011;43095;53.302;5.786;2022-11-20T14:35:54;7.80;;;5.55;;
57241;SDS011;43095;53.302;5.786;2022-11-20T14:38:24;8.77;;;6.90;;
57241;SDS011;43095;53.302;5.786;2022-11-20T14:41:05;8.18;;;5.72;;
57241;SDS011;43095;53.302;5.786;2022-11-20T14:43:45;6.95;;;5.72;;
57241;SDS011;43095;53.302;5.786;2022-11-20T14:46:19;10.18;;;6.13;;
57241;SDS011;43095;53.302;5.786;2022-11-20T14:48:48;7.75;;;5.78;;
57241;SDS011;43095;53.302;5.786;2022-11-20T14:56:41;8.15;;;6.10;;
57241;SDS011;43095;53.302;5.786;2022-11-20T14:59:09;8.50;;;6.25;;
57241;SDS011;43095;53.302;5.786;2022-11-20T15:01:36;8.68;;;6.47;;
57241;SDS011;43095;53.302;5.786;2022-11-20T15:04:09;7.85;;;5.93;;
57241;SDS011;43095;53.302;5.786;2022-11-20T15:06:37;7.30;;;5.88;;
57241;SDS011;43095;53.302;5.786;2022-11-20T15:09:15;8.40;;;5.88;;
57241;SDS011;43095;53.302;5.786;2022-11-20T15:11:50;8.98;;;5.97;;
57241;SDS011;43095;53.302;5.786;2022-11-20T15:14:27;9.27;;;5.95;;
57241;SDS011;43095;53.302;5.786;2022-11-20T15:16:56;9.40;;;6.13;;
57241;SDS011;43095;53.302;5.786;2022-11-20T15:19:24;9.48;;;5.68;;
57241;SDS011;43095;53.302;5.786;2022-11-20T15:21:52;8.15;;;5.93;;
57241;SDS011;43095;53.302;5.786;2022-11-20T15:24:19;9.07;;;6.10;;
57241;SDS011;43095;53.302;5.786;2022-11-20T15:26:47;9.10;;;6.00;;
57241;SDS011;43095;53.302;5.786;2022-11-20T15:29:15;8.88;;;6.22;;
57241;SDS011;43095;53.302;5.786;2022-11-20T15:31:47;8.60;;;6.40;;
57241;SDS011;43095;53.302;5.786;2022-11-20T15:34:14;8.65;;;6.05;;
57241;SDS011;43095;53.302;5.786;2022-11-20T15:36:42;8.73;;;6.07;;
57241;SDS011;43095;53.302;5.786;2022-11-20T15:39:10;8.30;;;6.05;;
57241;SDS011;43095;53.302;5.786;2022-11-20T15:41:38;8.60;;;6.20;;
57241;SDS011;43095;53.302;5.786;2022-11-20T15:44:05;10.68;;;7.05;;
57241;SDS011;43095;53.302;5.786;2022-11-20T15:46:35;8.35;;;5.97;;
57241;SDS011;43095;53.302;5.786;2022-11-20T15:49:05;11.60;;;7.07;;
57241;SDS011;43095;53.302;5.786;2022-11-20T15:51:38;7.75;;;5.57;;
57241;SDS011;43095;53.302;5.786;2022-11-20T15:54:17;8.35;;;6.18;;
57241;SDS011;43095;53.302;5.786;2022-11-20T15:56:47;8.27;;;5.97;;
57241;SDS011;43095;53.302;5.786;2022-11-20T15:59:16;8.63;;;6.10;;
57241;SDS011;43095;53.302;5.786;2022-11-20T16:01:43;10.15;;;6.43;;
57241;SDS011;43095;53.302;5.786;2022-11-20T16:04:11;8.57;;;6.50;;
57241;SDS011;43095;53.302;5.786;2022-11-20T16:06:39;8.52;;;6.50;;
57241;SDS011;43095;53.302;5.786;2022-11-20T16:09:07;9.77;;;6.40;;
57241;SDS011;43095;53.302;5.786;2022-11-20T16:11:35;7.93;;;5.82;;
57241;SDS011;43095;53.302;5.786;2022-11-20T16:14:05;10.52;;;6.43;;
57241;SDS011;43095;53.302;5.786;2022-11-20T16:16:54;8.95;;;6.40;;
57241;SDS011;43095;53.302;5.786;2022-11-20T16:19:21;9.70;;;6.40;;
57241;SDS011;43095;53.302;5.786;2022-11-20T16:21:49;8.75;;;6.10;;
57241;SDS011;43095;53.302;5.786;2022-11-20T16:24:16;9.30;;;6.18;;
57241;SDS011;43095;53.302;5.786;2022-11-20T16:26:43;8.98;;;7.05;;
57241;SDS011;43095;53.302;5.786;2022-11-20T16:29:10;8.27;;;6.30;;
57241;SDS011;43095;53.302;5.786;2022-11-20T16:31:37;8.95;;;6.18;;
57241;SDS011;43095;53.302;5.786;2022-11-20T16:34:06;10.57;;;6.85;;
57241;SDS011;43095;53.302;5.786;2022-11-20T16:36:41;10.55;;;7.05;;
57241;SDS011;43095;53.302;5.786;2022-11-20T16:41:38;9.25;;;6.82;;